Time;durP1;ratioP1;P1;durP2;ratioP2;P2;SDS_P1;SDS_P2;PMS_P1;PMS_P2;Temp;Humidity;BMP_temperature;BMP_pressure;BME280_temperature;BME280_humidity;BME280_pressure;Samples;Min_cycle;Max_cycle;Signal;HPM_P1;HPM_P2
2023/12/05 00:01:54;;;;;;;;;;;1.00;99.90;;;;;;5097112;28;19944;-30
2023/12/05 00:04:21;;;;;;;;;;;1.00;99.90;;;;;;5096929;28;19993;-30
2023/12/05 00:06:47;;;;;;;;;;;1.00;99.90;;;;;;5130088;27;19955;-30
2023/12/05 00:09:14;;;;;;;;;;;1.00;99.90;;;;;;5097045;28;20312;-30
2023/12/05 00:11:41;;;;;;;;;;;1.00;99.90;;;;;;5110105;27;19964;-30
2023/12/05 00:14:07;;;;;;;;;;;1.00;99.90;;;;;;5102709;27;19994;-30
2023/12/05 00:16:34;;;;;;;;;;;0.90;99.90;;;;;;5110145;27;19971;-30
2023/12/05 00:19:02;;;;;;;;;;;1.00;99.90;;;;;;5100621;28;19944;-30
2023/12/05 00:21:29;;;;;;;;;;;0.90;99.90;;;;;;5127400;27;19986;-30
2023/12/05 00:23:55;;;;;;;;;;;0.90;99.90;;;;;;5112523;27;19989;-30
2023/12/05 00:26:22;;;;;;;;;;;0.90;99.90;;;;;;5096344;28;20021;-30
2023/12/05 00:28:49;;;;;;;;;;;0.90;99.90;;;;;;5116428;27;19985;-31
2023/12/05 00:31:15;;;;;;;;;;;0.90;99.90;;;;;;5116524;27;19945;-30
2023/12/05 00:33:42;;;;;;;;;;;0.90;99.90;;;;;;5123399;27;19924;-29
2023/12/05 00:36:10;;;;;;;;;;;0.90;99.90;;;;;;5114396;28;20077;-30
2023/12/05 00:38:37;;;;;;;;;;;0.90;99.90;;;;;;5104053;28;19935;-30
2023/12/05 00:41:04;;;;;;;;;;;0.90;99.90;;;;;;5112247;27;20356;-29
2023/12/05 00:43:31;;;;;;;;;;;0.90;99.90;;;;;;5096264;28;19971;-29
2023/12/05 00:45:58;;;;;;;;;;;1.00;99.90;;;;;;5122445;27;20476;-30
2023/12/05 00:48:24;;;;;;;;;;;0.90;99.90;;;;;;5105305;28;19942;-30
2023/12/05 00:50:51;;;;;;;;;;;0.90;99.90;;;;;;5098988;27;19983;-30
2023/12/05 00:53:19;;;;;;;;;;;0.90;99.90;;;;;;5130997;27;19940;-30
2023/12/05 00:55:46;;;;;;;;;;;0.90;99.90;;;;;;5095769;28;20419;-31
2023/12/05 00:58:12;;;;;;;;;;;0.90;99.90;;;;;;5114671;27;19999;-30
2023/12/05 01:00:39;;;;;;;;;;;0.90;99.90;;;;;;5112851;27;19934;-30
2023/12/05 01:03:05;;;;;;;;;;;0.90;99.90;;;;;;5113882;27;19939;-31
2023/12/05 01:05:33;;;;;;;;;;;0.90;99.90;;;;;;5107406;27;19986;-30
2023/12/05 01:07:59;;;;;;;;;;;0.90;99.90;;;;;;5110243;27;19956;-30
2023/12/05 01:10:27;;;;;;;;;;;0.90;99.90;;;;;;5107534;28;19940;-29
2023/12/05 01:12:54;;;;;;;;;;;0.90;99.90;;;;;;5113712;28;20421;-30
2023/12/05 01:15:20;;;;;;;;;;;0.80;99.90;;;;;;5128008;27;20206;-30
2023/12/05 01:17:47;;;;;;;;;;;0.80;99.90;;;;;;5133950;27;19934;-30
2023/12/05 01:20:14;;;;;;;;;;;0.80;99.90;;;;;;5104996;28;20412;-29
2023/12/05 01:22:40;;;;;;;;;;;0.80;99.90;;;;;;5104469;27;19927;-31
2023/12/05 01:25:08;;;;;;;;;;;0.80;99.90;;;;;;5130188;27;19937;-30
2023/12/05 01:27:36;;;;;;;;;;;0.80;99.90;;;;;;5113171;28;19942;-31
2023/12/05 01:30:04;;;;;;;;;;;0.80;99.90;;;;;;5108337;27;19942;-31
2023/12/05 01:32:30;;;;;;;;;;;0.80;99.90;;;;;;5129680;27;19941;-29
2023/12/05 01:34:57;;;;;;;;;;;0.80;99.90;;;;;;5133799;27;20423;-30
2023/12/05 01:37:24;;;;;;;;;;;0.80;99.90;;;;;;5115595;27;19944;-30
2023/12/05 01:39:51;;;;;;;;;;;0.80;99.90;;;;;;5123799;27;19959;-30
2023/12/05 01:42:17;;;;;;;;;;;0.80;99.90;;;;;;5115073;27;19983;-31
2023/12/05 01:44:45;;;;;;;;;;;0.80;99.90;;;;;;5128530;27;19944;-30
2023/12/05 01:47:12;;;;;;;;;;;0.80;99.90;;;;;;5131875;27;19955;-29
2023/12/05 01:49:40;;;;;;;;;;;0.80;99.90;;;;;;5133187;27;20297;-30
2023/12/05 01:52:07;;;;;;;;;;;0.80;99.90;;;;;;5115530;27;20371;-31
2023/12/05 01:54:34;;;;;;;;;;;0.80;99.90;;;;;;5106380;27;19941;-30
2023/12/05 01:57:00;;;;;;;;;;;0.80;99.90;;;;;;5133340;27;19985;-30
2023/12/05 01:59:27;;;;;;;;;;;0.80;99.90;;;;;;5111411;28;19941;-29
2023/12/05 02:01:55;;;;;;;;;;;0.80;99.90;;;;;;5095059;28;20016;-29
2023/12/05 02:04:22;;;;;;;;;;;0.80;99.90;;;;;;5130769;28;19983;-30
2023/12/05 02:06:49;;;;;;;;;;;0.80;99.90;;;;;;5098906;28;19997;-30
2023/12/05 02:09:16;;;;;;;;;;;0.80;99.90;;;;;;5100422;28;19942;-30
2023/12/05 02:11:43;;;;;;;;;;;0.80;99.90;;;;;;5123568;28;20442;-31
2023/12/05 02:14:10;;;;;;;;;;;0.80;99.90;;;;;;5113910;28;19940;-30
2023/12/05 02:16:37;;;;;;;;;;;0.80;99.90;;;;;;5128929;28;20355;-30
2023/12/05 02:19:08;;;;;;;;;;;0.80;99.90;;;;;;5132537;28;19988;-30
2023/12/05 02:21:35;;;;;;;;;;;0.80;99.90;;;;;;5132734;28;20002;-30
2023/12/05 02:24:16;;;;;;;;;;;0.90;99.90;;;;;;5124882;28;20276;-30
2023/12/05 02:26:46;;;;;;;;;;;0.80;99.90;;;;;;5106403;28;20023;-30
2023/12/05 02:29:14;;;;;;;;;;;0.80;99.90;;;;;;5114102;28;19957;-30
2023/12/05 02:31:41;;;;;;;;;;;0.80;99.90;;;;;;5113129;28;19923;-30
2023/12/05 02:34:08;;;;;;;;;;;0.80;99.90;;;;;;5125671;28;20381;-30
2023/12/05 02:36:35;;;;;;;;;;;0.90;99.90;;;;;;5122228;28;20299;-30
2023/12/05 02:39:05;;;;;;;;;;;0.80;99.90;;;;;;5132747;28;19938;-30
2023/12/05 02:41:31;;;;;;;;;;;0.80;99.90;;;;;;5115571;28;20019;-30
2023/12/05 02:43:59;;;;;;;;;;;0.80;99.90;;;;;;5102455;27;20391;-30
2023/12/05 02:46:28;;;;;;;;;;;0.80;99.90;;;;;;5098184;27;19940;-30
2023/12/05 02:48:54;;;;;;;;;;;0.80;99.90;;;;;;5117859;27;19937;-29
2023/12/05 02:51:21;;;;;;;;;;;0.90;99.90;;;;;;5110683;27;20413;-31
2023/12/05 02:53:47;;;;;;;;;;;0.90;99.90;;;;;;5115431;27;19942;-30
2023/12/05 02:56:14;;;;;;;;;;;0.90;99.90;;;;;;5104191;27;19941;-30
2023/12/05 02:58:41;;;;;;;;;;;0.90;99.90;;;;;;5108490;27;19938;-30
2023/12/05 03:01:07;;;;;;;;;;;0.80;99.90;;;;;;5106086;28;19939;-30
2023/12/05 03:03:35;;;;;;;;;;;0.80;99.90;;;;;;5117125;27;19942;-30
2023/12/05 03:06:02;;;;;;;;;;;0.90;99.90;;;;;;5136408;27;19992;-30
2023/12/05 03:08:29;;;;;;;;;;;0.80;99.90;;;;;;5135708;27;19957;-29
2023/12/05 03:10:55;;;;;;;;;;;0.80;99.90;;;;;;5117624;27;19943;-30
2023/12/05 03:13:22;;;;;;;;;;;0.80;99.90;;;;;;5135907;27;19963;-31
2023/12/05 03:15:49;;;;;;;;;;;0.80;99.90;;;;;;5117646;27;19944;-29
2023/12/05 03:18:15;;;;;;;;;;;0.90;99.90;;;;;;5112882;27;19989;-29
2023/12/05 03:20:43;;;;;;;;;;;0.80;99.90;;;;;;5111612;27;19941;-30
2023/12/05 03:23:10;;;;;;;;;;;0.90;99.90;;;;;;5112839;27;19935;-30
2023/12/05 03:25:36;;;;;;;;;;;0.80;99.90;;;;;;5135841;27;20030;-31
2023/12/05 03:28:03;;;;;;;;;;;0.80;99.90;;;;;;5135586;27;19994;-30
2023/12/05 03:30:30;;;;;;;;;;;0.80;99.90;;;;;;5134893;27;19947;-30
2023/12/05 03:32:56;;;;;;;;;;;0.80;99.90;;;;;;5115994;27;20008;-29
2023/12/05 03:35:23;;;;;;;;;;;0.80;99.90;;;;;;5115427;27;20343;-29
2023/12/05 03:37:51;;;;;;;;;;;0.80;99.90;;;;;;5118462;27;20376;-29
2023/12/05 03:40:17;;;;;;;;;;;0.90;99.90;;;;;;5122918;27;20002;-29
2023/12/05 03:42:44;;;;;;;;;;;0.80;99.90;;;;;;5112123;28;20367;-30
2023/12/05 03:45:11;;;;;;;;;;;0.90;99.90;;;;;;5134774;27;20383;-30
2023/12/05 03:47:37;;;;;;;;;;;0.80;99.90;;;;;;5117469;27;19998;-30
2023/12/05 03:50:04;;;;;;;;;;;0.80;99.90;;;;;;5117384;27;20378;-29
2023/12/05 03:52:31;;;;;;;;;;;0.90;99.90;;;;;;5117213;27;19939;-30
2023/12/05 03:54:59;;;;;;;;;;;0.90;99.90;;;;;;5116731;27;19938;-30
2023/12/05 03:57:26;;;;;;;;;;;0.90;99.90;;;;;;5116900;27;19940;-30
2023/12/05 03:59:52;;;;;;;;;;;0.90;99.90;;;;;;5134276;27;19940;-29
2023/12/05 04:02:19;;;;;;;;;;;0.90;99.90;;;;;;5116685;27;20282;-30
2023/12/05 04:04:46;;;;;;;;;;;0.90;99.90;;;;;;5115833;27;20664;-30
2023/12/05 04:07:13;;;;;;;;;;;0.90;99.90;;;;;;5101410;27;19988;-30
2023/12/05 04:09:40;;;;;;;;;;;0.90;99.90;;;;;;5130867;27;19987;-30
2023/12/05 04:12:08;;;;;;;;;;;0.90;99.90;;;;;;5134454;27;19931;-31
2023/12/05 04:14:35;;;;;;;;;;;0.90;99.90;;;;;;5131964;27;20293;-31
2023/12/05 04:17:02;;;;;;;;;;;0.90;99.90;;;;;;5115391;27;20305;-30
2023/12/05 04:19:28;;;;;;;;;;;0.90;99.90;;;;;;5124499;27;19941;-30
2023/12/05 04:21:55;;;;;;;;;;;0.90;99.90;;;;;;5107416;28;20010;-30
2023/12/05 04:24:22;;;;;;;;;;;0.90;99.90;;;;;;5111658;27;20045;-29
2023/12/05 04:26:48;;;;;;;;;;;0.90;99.90;;;;;;5116102;27;19939;-30
2023/12/05 04:29:16;;;;;;;;;;;0.90;99.90;;;;;;5115233;27;20343;-30
2023/12/05 04:31:43;;;;;;;;;;;0.90;99.90;;;;;;5109586;27;19950;-29
2023/12/05 04:34:09;;;;;;;;;;;0.90;99.90;;;;;;5114935;27;19953;-30
2023/12/05 04:36:36;;;;;;;;;;;0.90;99.90;;;;;;5103201;27;19987;-29
2023/12/05 04:39:05;;;;;;;;;;;0.90;99.90;;;;;;5113084;27;19998;-29
2023/12/05 04:41:33;;;;;;;;;;;0.90;99.90;;;;;;5121716;27;19931;-29
2023/12/05 04:44:00;;;;;;;;;;;0.90;99.90;;;;;;5131794;27;19942;-31
2023/12/05 04:46:28;;;;;;;;;;;0.90;99.90;;;;;;5115506;27;19934;-29
2023/12/05 04:48:55;;;;;;;;;;;0.90;99.90;;;;;;5129609;27;20003;-31
2023/12/05 04:51:21;;;;;;;;;;;0.90;99.90;;;;;;5133325;27;19944;-31
2023/12/05 04:53:48;;;;;;;;;;;0.90;99.90;;;;;;5115938;27;20000;-30
2023/12/05 04:56:14;;;;;;;;;;;0.90;99.90;;;;;;5133523;27;20453;-30
2023/12/05 04:58:40;;;;;;;;;;;0.90;99.90;;;;;;5114273;27;19930;-30
2023/12/05 05:01:07;;;;;;;;;;;0.90;99.90;;;;;;5131312;27;19987;-30
2023/12/05 05:03:35;;;;;;;;;;;0.90;99.90;;;;;;5132081;27;19945;-29
2023/12/05 05:06:02;;;;;;;;;;;0.90;99.90;;;;;;5120840;27;20242;-30
2023/12/05 05:08:28;;;;;;;;;;;0.90;99.90;;;;;;5112492;27;20032;-31
2023/12/05 05:10:55;;;;;;;;;;;0.90;99.90;;;;;;5123085;27;19934;-30
2023/12/05 05:13:22;;;;;;;;;;;0.90;99.90;;;;;;5102988;28;19955;-30
2023/12/05 05:15:48;;;;;;;;;;;1.00;99.90;;;;;;5103373;27;19940;-30
2023/12/05 05:18:15;;;;;;;;;;;0.90;99.90;;;;;;5114643;27;20392;-30
2023/12/05 05:20:43;;;;;;;;;;;0.90;99.90;;;;;;5115594;27;19939;-31
2023/12/05 05:23:11;;;;;;;;;;;0.90;99.90;;;;;;5113813;27;19986;-30
2023/12/05 05:25:37;;;;;;;;;;;0.80;99.90;;;;;;5113835;27;19940;-30
2023/12/05 05:28:04;;;;;;;;;;;0.90;99.90;;;;;;5132279;27;20325;-30
2023/12/05 05:30:31;;;;;;;;;;;0.90;99.90;;;;;;5114969;27;19987;-30
2023/12/05 05:32:57;;;;;;;;;;;0.90;99.90;;;;;;5132524;27;20073;-31
2023/12/05 05:35:24;;;;;;;;;;;0.90;99.90;;;;;;5125843;27;19983;-31
2023/12/05 05:37:52;;;;;;;;;;;0.90;99.90;;;;;;5095321;28;20003;-30
2023/12/05 05:40:19;;;;;;;;;;;0.90;99.90;;;;;;5132517;27;19984;-31
2023/12/05 05:42:45;;;;;;;;;;;0.90;99.90;;;;;;5101209;28;19995;-30
2023/12/05 05:45:12;;;;;;;;;;;0.90;99.90;;;;;;5095976;27;20286;-30
2023/12/05 05:47:39;;;;;;;;;;;0.90;99.90;;;;;;5099448;28;20057;-30
2023/12/05 05:50:06;;;;;;;;;;;0.90;99.90;;;;;;5131486;27;19998;-30
2023/12/05 05:52:33;;;;;;;;;;;0.90;99.90;;;;;;5132179;27;19941;-29
2023/12/05 05:55:01;;;;;;;;;;;0.90;99.90;;;;;;5131190;27;20015;-31
2023/12/05 05:57:28;;;;;;;;;;;0.90;99.90;;;;;;5115257;27;19946;-31
2023/12/05 05:59:54;;;;;;;;;;;0.90;99.90;;;;;;5117751;28;20371;-30
2023/12/05 06:02:21;;;;;;;;;;;0.90;99.90;;;;;;5132065;28;19943;-30
2023/12/05 06:04:48;;;;;;;;;;;0.80;99.90;;;;;;5125980;28;19979;-31
2023/12/05 06:07:15;;;;;;;;;;;0.90;99.90;;;;;;5107464;28;19940;-30
2023/12/05 06:09:41;;;;;;;;;;;0.80;99.90;;;;;;5114925;28;19969;-30
2023/12/05 06:12:11;;;;;;;;;;;0.90;99.90;;;;;;5113943;28;19963;-31
2023/12/05 06:14:38;;;;;;;;;;;0.90;99.90;;;;;;5131734;28;19986;-30
2023/12/05 06:17:05;;;;;;;;;;;0.90;99.90;;;;;;5107954;27;20165;-31
2023/12/05 06:19:31;;;;;;;;;;;0.90;99.90;;;;;;5135069;27;20302;-30
2023/12/05 06:21:58;;;;;;;;;;;0.90;99.90;;;;;;5134639;27;20290;-30
2023/12/05 06:24:26;;;;;;;;;;;0.90;99.90;;;;;;5117199;27;20394;-30
2023/12/05 06:26:53;;;;;;;;;;;0.90;99.90;;;;;;5136023;27;20451;-30
2023/12/05 06:29:21;;;;;;;;;;;0.80;99.90;;;;;;5116972;27;19956;-30
2023/12/05 06:31:47;;;;;;;;;;;0.90;99.90;;;;;;5117251;27;20013;-30
2023/12/05 06:34:14;;;;;;;;;;;0.80;99.90;;;;;;5101768;27;19936;-31
2023/12/05 06:36:41;;;;;;;;;;;0.90;99.90;;;;;;5115742;27;19931;-30
2023/12/05 06:39:08;;;;;;;;;;;0.90;99.90;;;;;;5116440;27;19938;-30
2023/12/05 06:41:34;;;;;;;;;;;0.90;99.90;;;;;;5115359;27;19942;-30
2023/12/05 06:44:02;;;;;;;;;;;0.90;99.90;;;;;;5113157;27;19990;-29
2023/12/05 06:46:30;;;;;;;;;;;0.90;99.90;;;;;;5133739;27;19943;-30
2023/12/05 06:48:57;;;;;;;;;;;0.90;99.90;;;;;;5108459;27;19950;-30
2023/12/05 06:51:24;;;;;;;;;;;0.80;99.90;;;;;;5110299;27;19949;-30
2023/12/05 06:53:50;;;;;;;;;;;0.90;99.90;;;;;;5102508;28;19940;-30
2023/12/05 06:56:18;;;;;;;;;;;0.80;99.90;;;;;;5099855;27;19990;-29
2023/12/05 06:58:46;;;;;;;;;;;0.80;99.90;;;;;;5135169;27;19963;-30
2023/12/05 07:01:13;;;;;;;;;;;0.80;99.90;;;;;;5116716;27;19923;-29
2023/12/05 07:03:41;;;;;;;;;;;0.90;99.90;;;;;;5117099;27;19940;-29
2023/12/05 07:06:07;;;;;;;;;;;0.80;99.90;;;;;;5116969;27;19939;-30
2023/12/05 07:08:34;;;;;;;;;;;0.80;99.90;;;;;;5115005;27;19995;-30
2023/12/05 07:11:01;;;;;;;;;;;0.80;99.90;;;;;;5132418;27;20000;-30
2023/12/05 07:13:27;;;;;;;;;;;0.90;99.90;;;;;;5134793;27;20017;-31
2023/12/05 07:15:54;;;;;;;;;;;0.80;99.90;;;;;;5134999;27;20389;-29
2023/12/05 07:18:21;;;;;;;;;;;0.80;99.90;;;;;;5134705;27;19940;-30
2023/12/05 07:20:49;;;;;;;;;;;0.80;99.90;;;;;;5128821;27;20398;-29
2023/12/05 07:23:15;;;;;;;;;;;0.80;99.90;;;;;;5114928;27;20467;-29
2023/12/05 07:25:42;;;;;;;;;;;0.80;99.90;;;;;;5125948;27;20399;-30
2023/12/05 07:28:09;;;;;;;;;;;0.80;99.90;;;;;;5133321;27;19963;-31
2023/12/05 07:30:36;;;;;;;;;;;0.80;99.90;;;;;;5115057;27;20285;-30
2023/12/05 07:33:03;;;;;;;;;;;0.80;99.90;;;;;;5115119;27;20343;-30
2023/12/05 07:35:29;;;;;;;;;;;0.90;99.90;;;;;;5126600;27;20358;-31
2023/12/05 07:37:57;;;;;;;;;;;0.90;99.90;;;;;;5129931;27;20440;-30
2023/12/05 07:40:24;;;;;;;;;;;0.80;99.90;;;;;;5116229;27;19936;-30
2023/12/05 07:42:50;;;;;;;;;;;0.80;99.90;;;;;;5115868;27;20374;-30
2023/12/05 07:45:17;;;;;;;;;;;0.80;99.90;;;;;;5115704;27;19940;-29
2023/12/05 07:47:47;;;;;;;;;;;0.90;99.90;;;;;;5133901;27;19942;-29
2023/12/05 07:50:13;;;;;;;;;;;0.80;99.90;;;;;;5130360;27;19940;-31
2023/12/05 07:52:40;;;;;;;;;;;0.80;99.90;;;;;;5116199;27;19941;-30
2023/12/05 07:55:08;;;;;;;;;;;0.80;99.90;;;;;;5115738;27;19924;-30
2023/12/05 07:57:35;;;;;;;;;;;0.80;99.90;;;;;;5134059;27;20331;-30
2023/12/05 08:00:04;;;;;;;;;;;0.90;99.90;;;;;;5115830;27;19992;-30
2023/12/05 08:02:30;;;;;;;;;;;0.90;99.90;;;;;;5115677;27;19952;-30
2023/12/05 08:04:57;;;;;;;;;;;0.90;99.90;;;;;;5133923;27;19964;-30
2023/12/05 08:07:24;;;;;;;;;;;0.90;99.90;;;;;;5134078;27;20000;-30
2023/12/05 08:09:50;;;;;;;;;;;0.90;99.90;;;;;;5133863;27;19945;-29
2023/12/05 08:12:18;;;;;;;;;;;0.90;99.90;;;;;;5132562;27;20022;-30
2023/12/05 08:14:45;;;;;;;;;;;0.90;99.90;;;;;;5132227;27;20155;-30
2023/12/05 08:17:13;;;;;;;;;;;0.80;99.90;;;;;;5133498;27;19940;-31
2023/12/05 08:19:40;;;;;;;;;;;0.90;99.90;;;;;;5114809;27;19951;-30
2023/12/05 08:22:06;;;;;;;;;;;0.90;99.90;;;;;;5122064;27;19945;-29
2023/12/05 08:24:33;;;;;;;;;;;0.90;99.90;;;;;;5132467;27;19936;-30
2023/12/05 08:27:00;;;;;;;;;;;0.90;99.90;;;;;;5115082;27;19923;-30
2023/12/05 08:29:28;;;;;;;;;;;0.90;99.90;;;;;;5115235;27;19937;-36
2023/12/05 08:31:54;;;;;;;;;;;0.90;99.90;;;;;;5133604;27;19993;-29
2023/12/05 08:34:21;;;;;;;;;;;0.90;99.90;;;;;;5115153;27;19948;-30
2023/12/05 08:36:47;;;;;;;;;;;0.90;99.90;;;;;;5133700;27;19946;-29
2023/12/05 08:39:14;;;;;;;;;;;0.90;99.90;;;;;;5114431;28;19962;-30
2023/12/05 08:41:41;;;;;;;;;;;0.90;99.90;;;;;;5133495;27;20357;-30
2023/12/05 08:44:07;;;;;;;;;;;0.90;99.90;;;;;;5115155;27;19937;-30
2023/12/05 08:46:36;;;;;;;;;;;1.00;99.90;;;;;;5107062;28;19934;-30
2023/12/05 08:49:03;;;;;;;;;;;1.00;99.90;;;;;;5094316;28;19954;-30
2023/12/05 08:51:29;;;;;;;;;;;1.00;99.90;;;;;;5094795;28;19941;-30
2023/12/05 08:53:56;;;;;;;;;;;1.00;99.90;;;;;;5112775;28;20009;-30
2023/12/05 08:56:23;;;;;;;;;;;1.10;99.90;;;;;;5098786;27;20351;-30
2023/12/05 08:58:49;;;;;;;;;;;1.10;99.90;;;;;;5114876;27;20417;-30
2023/12/05 09:01:16;;;;;;;;;;;1.10;99.90;;;;;;5114990;27;19938;-30
2023/12/05 09:03:44;;;;;;;;;;;1.10;99.90;;;;;;5133036;27;19950;-29
2023/12/05 09:06:11;;;;;;;;;;;1.10;99.90;;;;;;5114912;27;19947;-30
2023/12/05 09:08:38;;;;;;;;;;;1.10;99.90;;;;;;5132746;27;19969;-30
2023/12/05 09:11:05;;;;;;;;;;;1.10;99.90;;;;;;5128485;27;19946;-30
2023/12/05 09:13:31;;;;;;;;;;;1.10;99.90;;;;;;5127565;27;19995;-30
2023/12/05 09:15:58;;;;;;;;;;;1.10;99.90;;;;;;5132195;27;19938;-30
2023/12/05 09:18:25;;;;;;;;;;;1.20;99.90;;;;;;5114044;27;20012;-30
2023/12/05 09:20:53;;;;;;;;;;;1.10;99.90;;;;;;5132449;27;19939;-30
2023/12/05 09:23:19;;;;;;;;;;;1.10;99.90;;;;;;5114554;27;19983;-29
2023/12/05 09:25:46;;;;;;;;;;;1.10;99.90;;;;;;5132003;27;19924;-29
2023/12/05 09:28:13;;;;;;;;;;;1.20;99.90;;;;;;5114086;27;19950;-30
2023/12/05 09:30:40;;;;;;;;;;;1.20;99.90;;;;;;5132132;27;19938;-30
2023/12/05 09:33:06;;;;;;;;;;;1.20;99.90;;;;;;5117462;27;19941;-30
2023/12/05 09:35:33;;;;;;;;;;;1.20;99.90;;;;;;5119361;27;20032;-33
2023/12/05 09:38:02;;;;;;;;;;;1.20;99.90;;;;;;5114018;27;19944;-30
2023/12/05 09:40:31;;;;;;;;;;;1.20;99.90;;;;;;5127444;27;20001;-29
2023/12/05 09:42:58;;;;;;;;;;;1.20;99.90;;;;;;5121455;27;20426;-31
2023/12/05 09:45:24;;;;;;;;;;;1.20;99.90;;;;;;5120309;27;19993;-30
2023/12/05 09:47:51;;;;;;;;;;;1.20;99.90;;;;;;5131429;27;20010;-30
2023/12/05 09:50:18;;;;;;;;;;;1.20;99.90;;;;;;5100138;28;19999;-30
2023/12/05 09:52:45;;;;;;;;;;;1.30;99.90;;;;;;5111209;28;19943;-30
2023/12/05 09:55:13;;;;;;;;;;;1.30;99.90;;;;;;5093567;28;19994;-30
2023/12/05 09:57:40;;;;;;;;;;;1.30;99.90;;;;;;5111326;28;20006;-30
2023/12/05 10:00:08;;;;;;;;;;;1.20;99.90;;;;;;5118365;27;19939;-30
2023/12/05 10:02:35;;;;;;;;;;;1.30;99.90;;;;;;5131956;27;20360;-29
2023/12/05 10:05:02;;;;;;;;;;;1.30;99.90;;;;;;5130299;28;19971;-30
2023/12/05 10:07:28;;;;;;;;;;;1.30;99.90;;;;;;5132181;28;19945;-30
2023/12/05 10:09:55;;;;;;;;;;;1.30;99.90;;;;;;5110541;28;19960;-30
2023/12/05 10:12:23;;;;;;;;;;;1.30;99.90;;;;;;5131380;28;19968;-30
2023/12/05 10:14:50;;;;;;;;;;;1.30;99.90;;;;;;5113825;28;19967;-30
2023/12/05 10:17:16;;;;;;;;;;;1.30;99.90;;;;;;5131401;28;19980;-31
2023/12/05 10:19:43;;;;;;;;;;;1.30;99.90;;;;;;5132036;28;20367;-30
2023/12/05 10:22:10;;;;;;;;;;;1.30;99.90;;;;;;5113937;28;20399;-31
2023/12/05 10:24:40;;;;;;;;;;;1.30;99.90;;;;;;5113940;28;19938;-40
2023/12/05 10:27:07;;;;;;;;;;;1.30;99.90;;;;;;5120463;28;20317;-30
2023/12/05 10:29:38;;;;;;;;;;;1.30;99.90;;;;;;5094607;28;19957;-31
2023/12/05 10:32:06;;;;;;;;;;;1.30;99.90;;;;;;5111649;28;19948;-31
2023/12/05 10:34:37;;;;;;;;;;;1.40;99.90;;;;;;5093802;28;20458;-30
2023/12/05 10:37:03;;;;;;;;;;;1.30;99.90;;;;;;5111504;28;19924;-30
2023/12/05 10:39:35;;;;;;;;;;;1.40;99.90;;;;;;5111496;28;20367;-29
2023/12/05 10:42:02;;;;;;;;;;;1.30;99.90;;;;;;5111218;28;20008;-29
2023/12/05 10:44:28;;;;;;;;;;;1.40;99.90;;;;;;5124970;28;19940;-30
2023/12/05 10:46:57;;;;;;;;;;;1.40;99.90;;;;;;5113460;28;19940;-29
2023/12/05 10:49:23;;;;;;;;;;;1.40;99.90;;;;;;5130092;28;19948;-30
2023/12/05 10:51:50;;;;;;;;;;;1.40;99.90;;;;;;5121611;28;20344;-29
2023/12/05 10:54:17;;;;;;;;;;;1.40;99.90;;;;;;5131076;28;20350;-30
2023/12/05 10:56:49;;;;;;;;;;;1.40;99.90;;;;;;5131479;28;19943;-31
2023/12/05 10:59:16;;;;;;;;;;;1.40;99.90;;;;;;5113318;28;19996;-29
2023/12/05 11:01:44;;;;;;;;;;;1.40;99.90;;;;;;5111736;28;19940;-29
2023/12/05 11:04:12;;;;;;;;;;;1.40;99.90;;;;;;5096485;27;20412;-30
2023/12/05 11:06:39;;;;;;;;;;;1.40;99.90;;;;;;5110340;28;20358;-30
2023/12/05 11:09:05;;;;;;;;;;;1.40;99.90;;;;;;5111936;27;20383;-30
2023/12/05 11:11:32;;;;;;;;;;;1.50;99.90;;;;;;5134918;27;20065;-30
2023/12/05 11:13:59;;;;;;;;;;;1.50;99.90;;;;;;5106292;28;19997;-30
2023/12/05 11:16:26;;;;;;;;;;;1.40;99.90;;;;;;5127589;27;19955;-29
2023/12/05 11:18:53;;;;;;;;;;;1.40;99.90;;;;;;5115454;27;19947;-29
2023/12/05 11:21:26;;;;;;;;;;;1.40;99.90;;;;;;5116624;27;19967;-30
2023/12/05 11:24:10;;;;;;;;;;;1.40;99.90;;;;;;5122672;27;20314;-29
2023/12/05 11:26:49;;;;;;;;;;;1.40;99.90;;;;;;5117916;27;19940;-30
2023/12/05 11:29:19;;;;;;;;;;;1.40;99.90;;;;;;5106781;27;19958;-29
2023/12/05 11:31:49;;;;;;;;;;;1.30;99.90;;;;;;5116120;27;19944;-29
2023/12/05 11:34:25;;;;;;;;;;;1.30;99.90;;;;;;5116486;27;19992;-30
2023/12/05 11:36:55;;;;;;;;;;;1.30;99.90;;;;;;5134325;27;20309;-29
2023/12/05 11:39:22;;;;;;;;;;;1.30;99.90;;;;;;5116694;27;19943;-31
2023/12/05 11:42:03;;;;;;;;;;;1.20;99.90;;;;;;5134149;27;20389;-29
2023/12/05 11:44:31;;;;;;;;;;;1.30;99.90;;;;;;5132725;27;19944;-30
2023/12/05 11:46:59;;;;;;;;;;;1.20;99.90;;;;;;5127289;27;19940;-30
2023/12/05 11:49:30;;;;;;;;;;;1.30;99.90;;;;;;5127486;27;20416;-30
2023/12/05 11:51:59;;;;;;;;;;;1.20;99.90;;;;;;5110765;27;20034;-29
2023/12/05 11:54:25;;;;;;;;;;;1.20;99.90;;;;;;5117912;27;20016;-30
2023/12/05 11:56:52;;;;;;;;;;;1.20;99.90;;;;;;5128653;27;19988;-30
2023/12/05 11:59:19;;;;;;;;;;;1.20;99.90;;;;;;5131671;27;19927;-30
2023/12/05 12:01:45;;;;;;;;;;;1.20;99.90;;;;;;5128311;27;20350;-30
2023/12/05 12:04:18;;;;;;;;;;;1.30;99.90;;;;;;5134804;27;19944;-30
2023/12/05 12:06:44;;;;;;;;;;;1.30;99.90;;;;;;5116657;27;19940;-29
2023/12/05 12:09:12;;;;;;;;;;;1.20;99.90;;;;;;5134592;27;19941;-30
2023/12/05 12:11:39;;;;;;;;;;;1.20;99.90;;;;;;5135029;27;19964;-29
2023/12/05 12:14:11;;;;;;;;;;;1.20;99.90;;;;;;5134759;27;19940;-30
2023/12/05 12:16:38;;;;;;;;;;;1.20;99.90;;;;;;5117297;27;20488;-30
2023/12/05 12:19:08;;;;;;;;;;;1.20;99.90;;;;;;5135579;27;19941;-30
2023/12/05 12:21:35;;;;;;;;;;;1.20;99.90;;;;;;5135169;27;19934;-30
2023/12/05 12:24:02;;;;;;;;;;;1.20;99.90;;;;;;5116786;27;20290;-30
2023/12/05 12:26:32;;;;;;;;;;;1.10;99.90;;;;;;5116846;27;19950;-29
2023/12/05 12:29:05;;;;;;;;;;;1.10;99.90;;;;;;5135128;27;19944;-30
2023/12/05 12:31:32;;;;;;;;;;;1.10;99.90;;;;;;5134790;27;20056;-29
2023/12/05 12:33:58;;;;;;;;;;;1.10;99.90;;;;;;5135125;27;19987;-30
2023/12/05 12:36:25;;;;;;;;;;;1.10;99.90;;;;;;5134780;27;20443;-30
2023/12/05 12:38:52;;;;;;;;;;;1.10;99.90;;;;;;5116360;27;19960;-30
2023/12/05 12:41:19;;;;;;;;;;;1.10;99.90;;;;;;5134919;27;19947;-30
2023/12/05 12:43:48;;;;;;;;;;;1.20;99.90;;;;;;5104764;27;20286;-30
2023/12/05 12:46:14;;;;;;;;;;;1.10;99.90;;;;;;5125181;27;19980;-30
2023/12/05 12:48:42;;;;;;;;;;;1.10;99.90;;;;;;5127911;27;20396;-31
2023/12/05 12:51:08;;;;;;;;;;;1.10;99.90;;;;;;5103556;27;19948;-31
2023/12/05 12:53:35;;;;;;;;;;;1.10;99.90;;;;;;5105185;28;20425;-31
2023/12/05 12:56:06;;;;;;;;;;;1.00;99.90;;;;;;5093974;28;19948;-30
2023/12/05 12:58:33;;;;;;;;;;;1.00;99.90;;;;;;5092865;27;19942;-30
2023/12/05 13:01:01;;;;;;;;;;;1.10;99.90;;;;;;5112075;27;19989;-30
2023/12/05 13:03:28;;;;;;;;;;;1.10;99.90;;;;;;5115652;27;19936;-30
2023/12/05 13:05:55;;;;;;;;;;;1.00;99.90;;;;;;5115911;27;19948;-30
2023/12/05 13:08:21;;;;;;;;;;;1.00;99.90;;;;;;5134179;27;19941;-30
2023/12/05 13:10:48;;;;;;;;;;;1.00;99.90;;;;;;5115547;27;19992;-30
2023/12/05 13:13:14;;;;;;;;;;;1.00;99.90;;;;;;5133378;27;20031;-29
2023/12/05 13:15:41;;;;;;;;;;;1.00;99.90;;;;;;5115849;27;19938;-30
2023/12/05 13:18:10;;;;;;;;;;;1.00;99.90;;;;;;5115190;27;19990;-30
2023/12/05 13:20:48;;;;;;;;;;;1.00;99.90;;;;;;5114587;27;19936;-30
2023/12/05 13:23:17;;;;;;;;;;;1.00;99.90;;;;;;5116101;27;20325;-30
2023/12/05 13:25:43;;;;;;;;;;;1.00;99.90;;;;;;5113286;27;20417;-30
2023/12/05 13:28:10;;;;;;;;;;;1.00;99.90;;;;;;5115558;27;19968;-30
2023/12/05 13:30:37;;;;;;;;;;;1.00;99.90;;;;;;5113722;27;19953;-30
2023/12/05 13:33:04;;;;;;;;;;;0.90;99.90;;;;;;5131869;27;19982;-29
2023/12/05 13:35:31;;;;;;;;;;;0.90;99.90;;;;;;5133501;27;19937;-30
2023/12/05 13:37:58;;;;;;;;;;;0.90;99.90;;;;;;5132013;27;20283;-29
2023/12/05 13:40:25;;;;;;;;;;;0.90;99.90;;;;;;5106593;28;19939;-30
2023/12/05 13:42:51;;;;;;;;;;;0.90;99.90;;;;;;5103312;27;19980;-29
2023/12/05 13:45:18;;;;;;;;;;;0.90;99.90;;;;;;5114311;27;19938;-30
2023/12/05 13:47:45;;;;;;;;;;;0.90;99.90;;;;;;5131938;27;19970;-30
2023/12/05 13:50:11;;;;;;;;;;;0.90;99.90;;;;;;5098086;28;20018;-30
2023/12/05 13:52:39;;;;;;;;;;;0.90;99.90;;;;;;5100584;27;19923;-30
2023/12/05 13:55:06;;;;;;;;;;;0.90;99.90;;;;;;5115247;27;20057;-30
2023/12/05 13:57:33;;;;;;;;;;;0.90;99.90;;;;;;5113043;27;19997;-30
2023/12/05 14:00:00;;;;;;;;;;;0.90;99.90;;;;;;5100420;28;19985;-30
2023/12/05 14:02:28;;;;;;;;;;;0.90;99.90;;;;;;5111483;28;20055;-30
2023/12/05 14:04:54;;;;;;;;;;;1.00;99.90;;;;;;5102317;28;19983;-30
2023/12/05 14:07:21;;;;;;;;;;;0.90;99.90;;;;;;5098927;28;20397;-31
2023/12/05 14:09:49;;;;;;;;;;;0.90;99.90;;;;;;5105373;28;20247;-30
2023/12/05 14:12:16;;;;;;;;;;;0.90;99.90;;;;;;5114254;28;19967;-30
2023/12/05 14:14:42;;;;;;;;;;;0.90;99.90;;;;;;5113309;28;19934;-30
2023/12/05 14:17:09;;;;;;;;;;;0.80;99.90;;;;;;5094510;28;19942;-30
2023/12/05 14:19:36;;;;;;;;;;;0.80;99.90;;;;;;5104541;28;19943;-31
2023/12/05 14:22:02;;;;;;;;;;;0.80;99.90;;;;;;5110535;28;20481;-30
2023/12/05 14:24:29;;;;;;;;;;;0.90;99.90;;;;;;5132613;28;19979;-29
2023/12/05 14:26:57;;;;;;;;;;;0.90;99.90;;;;;;5130662;28;19936;-30
2023/12/05 14:29:24;;;;;;;;;;;0.90;99.90;;;;;;5110373;28;19968;-30
2023/12/05 14:31:51;;;;;;;;;;;0.90;99.90;;;;;;5132211;28;19959;-30